createdAt,value
2022-09-16T00:00:24.657Z,7.53
2022-09-16T00:05:26.639Z,8.50
2022-09-16T00:10:28.723Z,10.13
2022-09-16T00:15:30.640Z,10.50
2022-09-16T00:20:32.476Z,10.70
2022-09-16T00:25:34.329Z,10.20
2022-09-16T00:30:36.418Z,10.57
2022-09-16T00:35:38.231Z,9.60
2022-09-16T00:40:50.598Z,9.93
2022-09-16T00:46:04.872Z,9.73
2022-09-16T00:51:11.145Z,10.15
2022-09-16T00:56:14.969Z,9.45
2022-09-16T01:01:16.828Z,11.73
2022-09-16T01:06:19.398Z,11.40
2022-09-16T01:11:21.193Z,13.07
2022-09-16T01:16:37.844Z,12.73
2022-09-16T01:21:53.839Z,12.55
2022-09-16T01:27:19.947Z,11.57
2022-09-16T01:32:43.368Z,12.57
2022-09-16T01:38:10.626Z,13.77
2022-09-16T01:43:28.013Z,13.18
2022-09-16T01:48:44.775Z,13.80
2022-09-16T01:54:03.258Z,14.98
2022-09-16T01:59:18.483Z,14.52
2022-09-16T02:04:29.968Z,14.95
2022-09-16T02:09:39.921Z,17.80
2022-09-16T02:14:45.217Z,22.83
2022-09-16T02:19:55.109Z,24.48
2022-09-16T02:24:59.843Z,24.58
2022-09-16T02:30:08.777Z,24.90
2022-09-16T02:35:14.522Z,26.02
2022-09-16T02:40:22.584Z,25.25
2022-09-16T02:45:36.969Z,24.45
2022-09-16T02:50:47.627Z,23.85
2022-09-16T02:56:02.218Z,25.45
2022-09-16T03:01:04.114Z,24.40
2022-09-16T03:06:08.978Z,24.52
2022-09-16T03:11:30.453Z,24.52
2022-09-16T03:16:53.632Z,24.75
2022-09-16T03:22:18.654Z,27.02
2022-09-16T03:27:32.985Z,23.20
2022-09-16T03:32:54.234Z,23.30
2022-09-16T03:37:59.203Z,24.92
2022-09-16T03:43:01.037Z,23.70
2022-09-16T03:48:02.903Z,21.20
2022-09-16T03:53:04.945Z,24.33
2022-09-16T03:58:06.757Z,23.38
2022-09-16T04:03:08.577Z,23.17
2022-09-16T04:08:10.483Z,24.85
2022-09-16T04:13:12.253Z,24.83
2022-09-16T04:18:14.074Z,24.15
2022-09-16T04:23:15.865Z,23.80
2022-09-16T04:28:17.642Z,25.50
2022-09-16T04:33:19.878Z,25.95
2022-09-16T04:38:21.696Z,26.50
2022-09-16T04:43:23.474Z,24.77
2022-09-16T04:48:25.757Z,24.92
2022-09-16T04:53:27.658Z,21.30
2022-09-16T04:58:29.872Z,22.85
2022-09-16T05:03:32.496Z,23.92
2022-09-16T05:08:35.328Z,23.42
2022-09-16T05:13:37.825Z,22.63
2022-09-16T05:18:41.177Z,24.58
2022-09-16T05:23:46.765Z,25.58
2022-09-16T05:28:50.907Z,26.85
2022-09-16T05:33:57.328Z,24.83
2022-09-16T05:39:21.709Z,25.20
2022-09-16T05:44:21.348Z,27.05
2022-09-16T05:49:23.902Z,28.35
2022-09-16T05:54:25.821Z,24.88
2022-09-16T05:59:27.617Z,28.35
2022-09-16T06:04:29.449Z,26.90
2022-09-16T06:09:31.289Z,25.33
2022-09-16T06:14:33.060Z,27.15
2022-09-16T06:19:34.837Z,26.80
2022-09-16T06:24:36.690Z,22.88
2022-09-16T06:29:38.447Z,23.48
2022-09-16T06:34:40.190Z,22.95
2022-09-16T06:39:42.673Z,20.27
2022-09-16T06:44:44.443Z,22.45
2022-09-16T06:49:46.866Z,22.00
2022-09-16T06:54:48.673Z,22.70
2022-09-16T06:59:51.146Z,21.35
2022-09-16T07:04:52.896Z,22.45
2022-09-16T07:09:54.638Z,22.85
2022-09-16T07:14:56.390Z,23.33
2022-09-16T07:19:58.229Z,22.30
2022-09-16T07:25:00.024Z,21.15
2022-09-16T07:30:03.612Z,17.38
2022-09-16T07:35:08.877Z,16.02
2022-09-16T07:40:10.986Z,14.98
2022-09-16T07:45:12.798Z,13.30
2022-09-16T07:50:14.613Z,13.10
2022-09-16T07:55:17.428Z,15.15
2022-09-16T08:00:19.735Z,12.48
2022-09-16T08:05:21.511Z,11.23
2022-09-16T08:10:23.294Z,9.48
2022-09-16T08:15:25.167Z,9.98
2022-09-16T08:20:28.285Z,8.60
2022-09-16T08:25:30.072Z,9.50
2022-09-16T08:30:31.890Z,8.95
2022-09-16T08:35:33.670Z,8.85
2022-09-16T08:40:36.398Z,8.95
2022-09-16T08:45:38.181Z,7.47
2022-09-16T08:50:43.883Z,8.82
2022-09-16T08:55:48.857Z,8.85
2022-09-16T09:00:58.358Z,7.72
2022-09-16T09:06:03.360Z,7.22
2022-09-16T09:11:23.370Z,7.47
2022-09-16T09:16:44.351Z,6.80
2022-09-16T09:22:08.252Z,6.47
2022-09-16T09:27:27.686Z,6.20
2022-09-16T09:32:53.940Z,5.43
2022-09-16T09:38:15.053Z,6.43
2022-09-16T09:43:46.764Z,6.30
2022-09-16T09:48:55.609Z,5.55
2022-09-16T09:54:06.014Z,5.53
2022-09-16T09:59:27.756Z,4.97
2022-09-16T10:04:37.627Z,5.30
2022-09-16T10:09:51.406Z,4.82
2022-09-16T10:14:53.237Z,4.65
2022-09-16T10:20:02.107Z,4.30
2022-09-16T10:25:24.299Z,4.10
2022-09-16T10:30:44.653Z,4.43
2022-09-16T10:35:58.038Z,4.78
2022-09-16T10:41:20.082Z,4.70
2022-09-16T10:46:22.175Z,4.50
2022-09-16T10:51:30.433Z,4.40
2022-09-16T10:56:34.698Z,4.43
2022-09-16T11:01:46.985Z,4.40
2022-09-16T11:06:52.456Z,4.43
2022-09-16T11:12:14.022Z,4.93
2022-09-16T11:17:41.396Z,5.20
2022-09-16T11:22:47.607Z,4.20
2022-09-16T11:28:15.257Z,4.25
2022-09-16T11:33:44.981Z,4.43
2022-09-16T11:39:17.527Z,4.07
2022-09-16T11:44:26.737Z,4.72
2022-09-16T11:49:47.254Z,4.60
2022-09-16T11:54:58.146Z,4.40
2022-09-16T12:00:14.014Z,4.55
2022-09-16T12:05:43.595Z,4.70
2022-09-16T12:11:13.004Z,4.07
2022-09-16T12:16:19.981Z,3.92
2022-09-16T12:21:41.778Z,3.97
2022-09-16T12:26:50.245Z,3.92
2022-09-16T12:37:17.848Z,3.63
2022-09-16T12:42:46.703Z,4.15
2022-09-16T12:48:27.031Z,3.50
2022-09-16T12:53:55.542Z,3.00
2022-09-16T12:59:22.101Z,3.28
2022-09-16T13:04:47.234Z,3.78
2022-09-16T13:09:59.594Z,3.00
2022-09-16T13:15:05.024Z,4.03
2022-09-16T13:20:13.437Z,2.88
2022-09-16T13:25:29.042Z,2.80
2022-09-16T13:30:36.886Z,2.85
2022-09-16T13:35:42.375Z,2.40
2022-09-16T13:41:03.297Z,3.13
2022-09-16T13:46:18.463Z,3.00
2022-09-16T13:51:22.819Z,2.90
2022-09-16T13:56:33.553Z,2.40
2022-09-16T14:01:59.963Z,2.15
2022-09-16T14:07:33.206Z,2.45
2022-09-16T14:12:59.619Z,2.50
2022-09-16T14:18:03.078Z,2.45
2022-09-16T14:23:15.465Z,2.80
2022-09-16T14:28:17.900Z,3.22
2022-09-16T14:33:24.801Z,3.15
2022-09-16T14:39:00.020Z,3.45
2022-09-16T14:44:22.672Z,3.97
2022-09-16T14:49:24.873Z,3.05
2022-09-16T14:54:27.463Z,3.00
2022-09-16T14:59:42.039Z,2.85
2022-09-16T15:04:47.961Z,3.40
2022-09-16T15:09:55.055Z,3.67
2022-09-16T15:14:57.870Z,3.43
2022-09-16T15:20:05.268Z,3.47
2022-09-16T15:25:21.430Z,3.10
2022-09-16T15:30:26.857Z,2.60
2022-09-16T15:35:35.515Z,2.75
2022-09-16T15:40:37.796Z,3.20
2022-09-16T15:45:40.821Z,2.55
2022-09-16T15:50:47.672Z,2.58
2022-09-16T15:55:54.946Z,2.50
2022-09-16T16:01:19.393Z,2.80
2022-09-16T16:06:45.114Z,3.03
2022-09-16T16:11:47.628Z,2.65
2022-09-16T16:17:11.221Z,3.25
2022-09-16T16:22:12.285Z,2.63
2022-09-16T16:27:14.286Z,3.30
2022-09-16T16:32:16.886Z,2.85
2022-09-16T16:37:44.475Z,2.78
2022-09-16T16:42:43.592Z,3.38
2022-09-16T16:47:46.311Z,3.15
2022-09-16T16:52:51.472Z,3.15
2022-09-16T16:57:53.221Z,3.88
2022-09-16T17:02:55.000Z,2.70
2022-09-16T17:07:56.873Z,2.70
2022-09-16T17:12:58.922Z,2.42
2022-09-16T17:18:00.682Z,2.08
2022-09-16T17:23:02.444Z,1.90
2022-09-16T17:28:04.478Z,1.83
2022-09-16T17:33:06.244Z,2.08
2022-09-16T17:38:09.838Z,2.03
2022-09-16T17:43:11.650Z,2.53
2022-09-16T17:48:13.452Z,2.40
2022-09-16T17:53:15.266Z,2.40
2022-09-16T17:58:17.387Z,2.65
2022-09-16T18:03:19.562Z,2.85
2022-09-16T18:08:21.691Z,2.75
2022-09-16T18:13:23.650Z,2.80
2022-09-16T18:18:25.413Z,2.65
2022-09-16T18:23:28.722Z,3.15
2022-09-16T18:28:35.708Z,2.83
2022-09-16T18:33:44.457Z,2.88
2022-09-16T18:38:51.154Z,2.90
2022-09-16T18:43:58.474Z,3.08
2022-09-16T18:49:01.214Z,2.80
2022-09-16T18:54:12.373Z,2.92
2022-09-16T18:59:22.092Z,2.78
2022-09-16T19:04:28.934Z,2.90
2022-09-16T19:09:31.505Z,2.53
2022-09-16T19:14:33.302Z,2.90
2022-09-16T19:19:35.377Z,2.70
2022-09-16T19:24:38.461Z,3.20
2022-09-16T19:29:40.217Z,3.20
2022-09-16T19:34:42.165Z,3.25
2022-09-16T19:39:44.369Z,2.88
2022-09-16T19:44:46.129Z,3.22
2022-09-16T19:49:47.872Z,3.25
2022-09-16T19:54:50.606Z,2.90
2022-09-16T19:59:52.377Z,4.18
2022-09-16T20:04:54.671Z,3.28
2022-09-16T20:09:56.680Z,3.22
2022-09-16T20:14:58.950Z,2.88
2022-09-16T20:20:00.809Z,3.25
2022-09-16T20:25:21.764Z,3.45
2022-09-16T20:30:24.468Z,4.35
2022-09-16T20:35:26.505Z,3.60
2022-09-16T20:40:28.904Z,3.38
2022-09-16T20:45:31.163Z,4.20
2022-09-16T20:50:37.893Z,4.13
2022-09-16T20:55:39.656Z,3.88
2022-09-16T21:00:41.643Z,4.10
2022-09-16T21:05:43.571Z,4.45
2022-09-16T21:10:45.371Z,5.03
2022-09-16T21:15:55.823Z,4.13
2022-09-16T21:21:05.485Z,4.65
2022-09-16T21:26:12.991Z,4.97
2022-09-16T21:31:15.837Z,4.38
2022-09-16T21:36:19.394Z,4.35
2022-09-16T21:41:22.545Z,4.70
2022-09-16T21:46:31.822Z,4.25
2022-09-16T21:51:37.750Z,4.88
2022-09-16T21:56:41.070Z,4.40
2022-09-16T22:01:42.963Z,4.47
2022-09-16T22:06:44.905Z,4.60
2022-09-16T22:11:47.276Z,4.32
2022-09-16T22:16:49.125Z,4.28
2022-09-16T22:21:51.338Z,4.13
2022-09-16T22:26:53.174Z,4.18
2022-09-16T22:31:54.990Z,3.92
2022-09-16T22:36:56.798Z,4.10
2022-09-16T22:41:58.601Z,4.22
2022-09-16T22:47:00.480Z,4.72
2022-09-16T22:52:02.510Z,4.47
2022-09-16T22:57:04.281Z,5.22
2022-09-16T23:02:06.126Z,4.40
2022-09-16T23:07:09.969Z,4.40
2022-09-16T23:12:14.820Z,4.60
2022-09-16T23:17:16.577Z,5.07
2022-09-16T23:22:18.349Z,6.00
2022-09-16T23:27:20.473Z,5.40
2022-09-16T23:32:22.249Z,6.82
2022-09-16T23:37:24.118Z,8.32
2022-09-16T23:42:27.113Z,7.45
2022-09-16T23:47:28.873Z,7.32
2022-09-16T23:52:30.981Z,6.88
2022-09-16T23:57:32.856Z,5.95
